sensor_id;sensor_type;location;lat;lon;timestamp;P1;durP1;ratioP1;P2;durP2;ratioP2
43891;SDS011;29555;45.350;5.578;2023-09-19T00:01:32;5.88;;;1.55;;
43891;SDS011;29555;45.350;5.578;2023-09-19T00:03:58;2.03;;;1.42;;
43891;SDS011;29555;45.350;5.578;2023-09-19T00:06:25;1.33;;;1.13;;
43891;SDS011;29555;45.350;5.578;2023-09-19T00:08:51;1.52;;;1.00;;
43891;SDS011;29555;45.350;5.578;2023-09-19T00:11:17;10.68;;;1.63;;
43891;SDS011;29555;45.350;5.578;2023-09-19T00:13:42;6.55;;;1.48;;
43891;SDS011;29555;45.350;5.578;2023-09-19T00:16:09;1.40;;;1.00;;
43891;SDS011;29555;45.350;5.578;2023-09-19T00:18:38;10.80;;;1.45;;
43891;SDS011;29555;45.350;5.578;2023-09-19T00:21:04;4.03;;;1.42;;
43891;SDS011;29555;45.350;5.578;2023-09-19T00:23:32;1.73;;;1.63;;
43891;SDS011;29555;45.350;5.578;2023-09-19T00:25:58;4.10;;;1.50;;
43891;SDS011;29555;45.350;5.578;2023-09-19T00:28:24;1.50;;;0.85;;
43891;SDS011;29555;45.350;5.578;2023-09-19T00:30:51;7.72;;;1.42;;
43891;SDS011;29555;45.350;5.578;2023-09-19T00:33:16;2.30;;;1.65;;
43891;SDS011;29555;45.350;5.578;2023-09-19T00:35:51;2.50;;;1.42;;
43891;SDS011;29555;45.350;5.578;2023-09-19T00:38:18;2.75;;;1.92;;
43891;SDS011;29555;45.350;5.578;2023-09-19T00:40:48;2.22;;;1.50;;
43891;SDS011;29555;45.350;5.578;2023-09-19T00:43:14;3.85;;;1.70;;
43891;SDS011;29555;45.350;5.578;2023-09-19T00:45:42;3.05;;;1.55;;
43891;SDS011;29555;45.350;5.578;2023-09-19T00:48:10;7.07;;;1.33;;
43891;SDS011;29555;45.350;5.578;2023-09-19T00:50:36;2.33;;;1.52;;
43891;SDS011;29555;45.350;5.578;2023-09-19T00:53:07;1.40;;;1.30;;
43891;SDS011;29555;45.350;5.578;2023-09-19T00:55:33;5.25;;;1.83;;
43891;SDS011;29555;45.350;5.578;2023-09-19T00:57:59;2.45;;;1.38;;
43891;SDS011;29555;45.350;5.578;2023-09-19T01:00:25;2.38;;;1.40;;
43891;SDS011;29555;45.350;5.578;2023-09-19T01:02:51;1.20;;;1.10;;
43891;SDS011;29555;45.350;5.578;2023-09-19T01:05:16;1.95;;;1.77;;
43891;SDS011;29555;45.350;5.578;2023-09-19T01:07:42;2.25;;;1.27;;
43891;SDS011;29555;45.350;5.578;2023-09-19T01:10:11;0.93;;;0.77;;
43891;SDS011;29555;45.350;5.578;2023-09-19T01:15:28;2.15;;;1.13;;
43891;SDS011;29555;45.350;5.578;2023-09-19T01:18:50;1.73;;;1.00;;
43891;SDS011;29555;45.350;5.578;2023-09-19T01:32:10;1.95;;;1.20;;
43891;SDS011;29555;45.350;5.578;2023-09-19T01:37:19;2.33;;;1.30;;
43891;SDS011;29555;45.350;5.578;2023-09-19T01:40:06;2.55;;;1.63;;
43891;SDS011;29555;45.350;5.578;2023-09-19T01:47:58;7.32;;;1.60;;
43891;SDS011;29555;45.350;5.578;2023-09-19T01:50:46;8.40;;;2.22;;
43891;SDS011;29555;45.350;5.578;2023-09-19T01:53:27;2.88;;;2.13;;
43891;SDS011;29555;45.350;5.578;2023-09-19T01:55:58;6.60;;;2.00;;
43891;SDS011;29555;45.350;5.578;2023-09-19T02:00:58;4.75;;;2.65;;
43891;SDS011;29555;45.350;5.578;2023-09-19T02:03:25;3.60;;;2.03;;
43891;SDS011;29555;45.350;5.578;2023-09-19T02:05:53;7.75;;;1.58;;
43891;SDS011;29555;45.350;5.578;2023-09-19T02:08:20;4.72;;;2.03;;
43891;SDS011;29555;45.350;5.578;2023-09-19T02:10:48;2.95;;;1.35;;
43891;SDS011;29555;45.350;5.578;2023-09-19T02:13:17;2.70;;;2.20;;
43891;SDS011;29555;45.350;5.578;2023-09-19T02:15:44;2.22;;;2.03;;
43891;SDS011;29555;45.350;5.578;2023-09-19T02:18:09;2.95;;;1.63;;
43891;SDS011;29555;45.350;5.578;2023-09-19T02:20:36;1.10;;;1.05;;
43891;SDS011;29555;45.350;5.578;2023-09-19T02:23:02;2.67;;;2.15;;
43891;SDS011;29555;45.350;5.578;2023-09-19T02:28:31;3.67;;;1.52;;
43891;SDS011;29555;45.350;5.578;2023-09-19T02:30:57;6.13;;;2.15;;
43891;SDS011;29555;45.350;5.578;2023-09-19T02:33:23;5.28;;;2.67;;
43891;SDS011;29555;45.350;5.578;2023-09-19T02:35:49;3.92;;;1.98;;
43891;SDS011;29555;45.350;5.578;2023-09-19T02:38:15;2.80;;;1.92;;
43891;SDS011;29555;45.350;5.578;2023-09-19T02:40:45;3.85;;;2.08;;
43891;SDS011;29555;45.350;5.578;2023-09-19T02:43:11;12.52;;;2.75;;
43891;SDS011;29555;45.350;5.578;2023-09-19T02:45:37;2.45;;;1.33;;
43891;SDS011;29555;45.350;5.578;2023-09-19T02:48:02;2.55;;;1.45;;
43891;SDS011;29555;45.350;5.578;2023-09-19T02:50:29;14.50;;;2.20;;
43891;SDS011;29555;45.350;5.578;2023-09-19T02:52:54;4.43;;;2.05;;
43891;SDS011;29555;45.350;5.578;2023-09-19T02:55:20;1.60;;;1.50;;
43891;SDS011;29555;45.350;5.578;2023-09-19T02:57:50;6.00;;;1.55;;
43891;SDS011;29555;45.350;5.578;2023-09-19T03:00:17;4.57;;;2.35;;
43891;SDS011;29555;45.350;5.578;2023-09-19T03:02:47;8.73;;;2.63;;
43891;SDS011;29555;45.350;5.578;2023-09-19T03:05:13;2.65;;;2.17;;
43891;SDS011;29555;45.350;5.578;2023-09-19T03:07:39;1.75;;;1.20;;
43891;SDS011;29555;45.350;5.578;2023-09-19T03:10:05;1.15;;;1.10;;
43891;SDS011;29555;45.350;5.578;2023-09-19T03:12:32;1.77;;;1.60;;
43891;SDS011;29555;45.350;5.578;2023-09-19T03:14:58;2.88;;;1.63;;
43891;SDS011;29555;45.350;5.578;2023-09-19T03:17:24;4.03;;;1.75;;
43891;SDS011;29555;45.350;5.578;2023-09-19T03:19:50;3.13;;;1.25;;
43891;SDS011;29555;45.350;5.578;2023-09-19T03:22:15;3.45;;;1.55;;
43891;SDS011;29555;45.350;5.578;2023-09-19T03:24:41;1.90;;;1.63;;
43891;SDS011;29555;45.350;5.578;2023-09-19T03:27:11;3.30;;;2.03;;
43891;SDS011;29555;45.350;5.578;2023-09-19T03:29:40;2.55;;;1.50;;
43891;SDS011;29555;45.350;5.578;2023-09-19T03:32:06;2.25;;;1.92;;
43891;SDS011;29555;45.350;5.578;2023-09-19T03:34:32;5.38;;;2.03;;
43891;SDS011;29555;45.350;5.578;2023-09-19T03:36:57;1.48;;;1.30;;
43891;SDS011;29555;45.350;5.578;2023-09-19T03:39:22;4.43;;;1.50;;
43891;SDS011;29555;45.350;5.578;2023-09-19T03:41:48;2.60;;;2.40;;
43891;SDS011;29555;45.350;5.578;2023-09-19T03:44:14;3.00;;;1.98;;
43891;SDS011;29555;45.350;5.578;2023-09-19T03:46:40;2.60;;;1.75;;
43891;SDS011;29555;45.350;5.578;2023-09-19T03:49:05;7.82;;;3.13;;
43891;SDS011;29555;45.350;5.578;2023-09-19T03:51:31;2.88;;;2.00;;
43891;SDS011;29555;45.350;5.578;2023-09-19T03:53:56;2.80;;;1.67;;
43891;SDS011;29555;45.350;5.578;2023-09-19T03:56:21;3.45;;;2.22;;
43891;SDS011;29555;45.350;5.578;2023-09-19T03:58:47;1.65;;;1.55;;
43891;SDS011;29555;45.350;5.578;2023-09-19T04:01:12;2.58;;;1.92;;
43891;SDS011;29555;45.350;5.578;2023-09-19T04:03:38;2.17;;;1.95;;
43891;SDS011;29555;45.350;5.578;2023-09-19T04:06:13;4.65;;;2.28;;
43891;SDS011;29555;45.350;5.578;2023-09-19T04:08:39;9.68;;;1.58;;
43891;SDS011;29555;45.350;5.578;2023-09-19T04:11:05;3.25;;;2.17;;
43891;SDS011;29555;45.350;5.578;2023-09-19T04:13:30;2.42;;;1.95;;
43891;SDS011;29555;45.350;5.578;2023-09-19T04:15:56;4.57;;;1.63;;
43891;SDS011;29555;45.350;5.578;2023-09-19T04:18:21;2.53;;;1.73;;
43891;SDS011;29555;45.350;5.578;2023-09-19T04:20:52;5.03;;;2.30;;
43891;SDS011;29555;45.350;5.578;2023-09-19T04:23:18;4.22;;;1.98;;
43891;SDS011;29555;45.350;5.578;2023-09-19T04:25:46;4.00;;;1.40;;
43891;SDS011;29555;45.350;5.578;2023-09-19T04:28:11;2.50;;;1.52;;
43891;SDS011;29555;45.350;5.578;2023-09-19T04:30:37;2.08;;;1.75;;
43891;SDS011;29555;45.350;5.578;2023-09-19T04:33:05;3.08;;;2.13;;
43891;SDS011;29555;45.350;5.578;2023-09-19T04:35:31;1.88;;;1.08;;
43891;SDS011;29555;45.350;5.578;2023-09-19T04:37:56;2.92;;;2.20;;
43891;SDS011;29555;45.350;5.578;2023-09-19T04:40:22;5.43;;;2.58;;
43891;SDS011;29555;45.350;5.578;2023-09-19T04:42:58;7.18;;;2.75;;
43891;SDS011;29555;45.350;5.578;2023-09-19T04:45:24;5.72;;;2.28;;
43891;SDS011;29555;45.350;5.578;2023-09-19T04:47:51;5.13;;;2.63;;
43891;SDS011;29555;45.350;5.578;2023-09-19T04:50:16;6.30;;;3.53;;
43891;SDS011;29555;45.350;5.578;2023-09-19T04:52:45;2.33;;;2.10;;
43891;SDS011;29555;45.350;5.578;2023-09-19T04:55:11;13.10;;;3.47;;
43891;SDS011;29555;45.350;5.578;2023-09-19T04:57:45;8.55;;;3.45;;
43891;SDS011;29555;45.350;5.578;2023-09-19T05:02:41;4.38;;;2.65;;
43891;SDS011;29555;45.350;5.578;2023-09-19T05:05:07;2.95;;;2.58;;
43891;SDS011;29555;45.350;5.578;2023-09-19T05:07:34;7.72;;;2.90;;
43891;SDS011;29555;45.350;5.578;2023-09-19T05:09:59;3.30;;;2.70;;
43891;SDS011;29555;45.350;5.578;2023-09-19T05:12:26;3.50;;;2.17;;
43891;SDS011;29555;45.350;5.578;2023-09-19T05:14:52;2.85;;;2.13;;
43891;SDS011;29555;45.350;5.578;2023-09-19T05:17:17;13.27;;;2.90;;
43891;SDS011;29555;45.350;5.578;2023-09-19T05:19:43;4.75;;;2.90;;
43891;SDS011;29555;45.350;5.578;2023-09-19T05:22:08;10.10;;;3.60;;
43891;SDS011;29555;45.350;5.578;2023-09-19T05:24:34;5.15;;;3.35;;
43891;SDS011;29555;45.350;5.578;2023-09-19T05:26:59;10.38;;;3.22;;
43891;SDS011;29555;45.350;5.578;2023-09-19T05:29:25;4.68;;;3.58;;
43891;SDS011;29555;45.350;5.578;2023-09-19T05:31:50;12.57;;;4.03;;
43891;SDS011;29555;45.350;5.578;2023-09-19T05:34:16;6.97;;;2.67;;
43891;SDS011;29555;45.350;5.578;2023-09-19T05:36:41;3.13;;;2.60;;
43891;SDS011;29555;45.350;5.578;2023-09-19T05:39:07;5.45;;;3.10;;
43891;SDS011;29555;45.350;5.578;2023-09-19T05:41:34;4.55;;;3.35;;
43891;SDS011;29555;45.350;5.578;2023-09-19T05:44:01;3.60;;;2.80;;
43891;SDS011;29555;45.350;5.578;2023-09-19T05:46:28;7.28;;;3.13;;
43891;SDS011;29555;45.350;5.578;2023-09-19T05:48:54;4.68;;;3.17;;
43891;SDS011;29555;45.350;5.578;2023-09-19T05:51:21;3.65;;;3.30;;
43891;SDS011;29555;45.350;5.578;2023-09-19T05:53:48;4.68;;;3.60;;
43891;SDS011;29555;45.350;5.578;2023-09-19T05:56:13;6.22;;;3.70;;
43891;SDS011;29555;45.350;5.578;2023-09-19T05:58:40;8.75;;;3.70;;
43891;SDS011;29555;45.350;5.578;2023-09-19T06:01:07;3.20;;;3.00;;
43891;SDS011;29555;45.350;5.578;2023-09-19T06:03:34;5.80;;;3.70;;
43891;SDS011;29555;45.350;5.578;2023-09-19T06:06:00;5.70;;;4.03;;
43891;SDS011;29555;45.350;5.578;2023-09-19T06:08:31;17.48;;;4.20;;
43891;SDS011;29555;45.350;5.578;2023-09-19T06:10:57;10.40;;;4.78;;
43891;SDS011;29555;45.350;5.578;2023-09-19T06:13:22;5.28;;;3.78;;
43891;SDS011;29555;45.350;5.578;2023-09-19T06:15:48;8.70;;;3.83;;
43891;SDS011;29555;45.350;5.578;2023-09-19T06:18:14;5.35;;;3.95;;
43891;SDS011;29555;45.350;5.578;2023-09-19T06:20:44;17.45;;;4.63;;
43891;SDS011;29555;45.350;5.578;2023-09-19T06:23:11;4.45;;;3.97;;
43891;SDS011;29555;45.350;5.578;2023-09-19T06:25:36;11.88;;;4.40;;
43891;SDS011;29555;45.350;5.578;2023-09-19T06:28:02;4.43;;;3.55;;
43891;SDS011;29555;45.350;5.578;2023-09-19T06:30:30;9.18;;;4.68;;
43891;SDS011;29555;45.350;5.578;2023-09-19T06:32:56;13.25;;;4.88;;
43891;SDS011;29555;45.350;5.578;2023-09-19T06:35:22;6.20;;;4.22;;
43891;SDS011;29555;45.350;5.578;2023-09-19T06:37:48;6.43;;;3.70;;
43891;SDS011;29555;45.350;5.578;2023-09-19T06:40:14;5.40;;;4.18;;
43891;SDS011;29555;45.350;5.578;2023-09-19T06:42:43;6.43;;;4.20;;
43891;SDS011;29555;45.350;5.578;2023-09-19T06:45:10;4.35;;;3.63;;
43891;SDS011;29555;45.350;5.578;2023-09-19T06:47:38;5.95;;;4.40;;
43891;SDS011;29555;45.350;5.578;2023-09-19T06:50:04;7.22;;;4.90;;
43891;SDS011;29555;45.350;5.578;2023-09-19T06:52:31;5.35;;;3.88;;
43891;SDS011;29555;45.350;5.578;2023-09-19T06:54:58;8.45;;;4.25;;
43891;SDS011;29555;45.350;5.578;2023-09-19T06:57:23;4.85;;;4.35;;
43891;SDS011;29555;45.350;5.578;2023-09-19T06:59:49;6.97;;;3.63;;
43891;SDS011;29555;45.350;5.578;2023-09-19T07:02:15;9.40;;;4.53;;
43891;SDS011;29555;45.350;5.578;2023-09-19T07:04:40;4.60;;;3.22;;
43891;SDS011;29555;45.350;5.578;2023-09-19T07:07:06;3.95;;;3.55;;
43891;SDS011;29555;45.350;5.578;2023-09-19T07:09:33;7.22;;;3.88;;
43891;SDS011;29555;45.350;5.578;2023-09-19T07:11:59;5.50;;;3.85;;
43891;SDS011;29555;45.350;5.578;2023-09-19T07:14:25;4.05;;;3.65;;
43891;SDS011;29555;45.350;5.578;2023-09-19T07:16:52;10.13;;;5.32;;
43891;SDS011;29555;45.350;5.578;2023-09-19T07:19:17;5.60;;;3.67;;
43891;SDS011;29555;45.350;5.578;2023-09-19T07:21:42;4.35;;;3.70;;
43891;SDS011;29555;45.350;5.578;2023-09-19T07:24:08;5.72;;;4.10;;
43891;SDS011;29555;45.350;5.578;2023-09-19T07:26:33;6.18;;;4.25;;
43891;SDS011;29555;45.350;5.578;2023-09-19T07:28:59;4.85;;;3.58;;
43891;SDS011;29555;45.350;5.578;2023-09-19T07:31:24;4.43;;;3.60;;
43891;SDS011;29555;45.350;5.578;2023-09-19T07:33:50;16.58;;;4.40;;
43891;SDS011;29555;45.350;5.578;2023-09-19T07:36:16;7.68;;;4.53;;
43891;SDS011;29555;45.350;5.578;2023-09-19T07:38:42;6.95;;;3.85;;
43891;SDS011;29555;45.350;5.578;2023-09-19T07:41:07;5.05;;;3.83;;
43891;SDS011;29555;45.350;5.578;2023-09-19T07:43:34;5.65;;;4.35;;
43891;SDS011;29555;45.350;5.578;2023-09-19T07:46:05;6.90;;;2.88;;
43891;SDS011;29555;45.350;5.578;2023-09-19T07:48:35;7.00;;;4.07;;
43891;SDS011;29555;45.350;5.578;2023-09-19T07:51:04;8.02;;;4.50;;
43891;SDS011;29555;45.350;5.578;2023-09-19T07:53:31;4.55;;;4.10;;
43891;SDS011;29555;45.350;5.578;2023-09-19T07:56:03;4.78;;;3.53;;
43891;SDS011;29555;45.350;5.578;2023-09-19T07:58:29;5.75;;;4.35;;
43891;SDS011;29555;45.350;5.578;2023-09-19T08:00:55;6.95;;;4.47;;
43891;SDS011;29555;45.350;5.578;2023-09-19T08:03:20;5.55;;;4.32;;
43891;SDS011;29555;45.350;5.578;2023-09-19T08:05:45;5.68;;;3.85;;
43891;SDS011;29555;45.350;5.578;2023-09-19T08:08:13;8.50;;;4.85;;
43891;SDS011;29555;45.350;5.578;2023-09-19T08:10:39;7.15;;;3.83;;
43891;SDS011;29555;45.350;5.578;2023-09-19T08:13:07;4.63;;;3.95;;
43891;SDS011;29555;45.350;5.578;2023-09-19T08:15:36;4.55;;;3.90;;
43891;SDS011;29555;45.350;5.578;2023-09-19T08:18:08;6.18;;;4.38;;
43891;SDS011;29555;45.350;5.578;2023-09-19T08:20:35;3.83;;;3.42;;
43891;SDS011;29555;45.350;5.578;2023-09-19T08:23:03;5.30;;;3.53;;
43891;SDS011;29555;45.350;5.578;2023-09-19T08:25:28;5.00;;;3.58;;
43891;SDS011;29555;45.350;5.578;2023-09-19T08:27:54;7.82;;;3.08;;
43891;SDS011;29555;45.350;5.578;2023-09-19T08:30:23;6.15;;;3.03;;
43891;SDS011;29555;45.350;5.578;2023-09-19T08:32:49;4.32;;;2.63;;
43891;SDS011;29555;45.350;5.578;2023-09-19T08:35:15;3.35;;;2.78;;
43891;SDS011;29555;45.350;5.578;2023-09-19T08:37:42;5.00;;;2.05;;
43891;SDS011;29555;45.350;5.578;2023-09-19T08:40:08;1.85;;;1.75;;
43891;SDS011;29555;45.350;5.578;2023-09-19T08:42:50;2.30;;;2.10;;
43891;SDS011;29555;45.350;5.578;2023-09-19T08:45:19;3.28;;;1.63;;
43891;SDS011;29555;45.350;5.578;2023-09-19T08:47:51;2.63;;;1.23;;
43891;SDS011;29555;45.350;5.578;2023-09-19T08:50:26;1.60;;;1.50;;
43891;SDS011;29555;45.350;5.578;2023-09-19T08:52:54;3.25;;;2.72;;
43891;SDS011;29555;45.350;5.578;2023-09-19T08:55:21;3.95;;;2.08;;
43891;SDS011;29555;45.350;5.578;2023-09-19T08:57:51;5.35;;;2.33;;
43891;SDS011;29555;45.350;5.578;2023-09-19T09:00:19;3.70;;;2.70;;
43891;SDS011;29555;45.350;5.578;2023-09-19T09:02:46;2.08;;;1.98;;
43891;SDS011;29555;45.350;5.578;2023-09-19T09:05:12;3.22;;;1.90;;
43891;SDS011;29555;45.350;5.578;2023-09-19T09:07:38;3.13;;;1.65;;
43891;SDS011;29555;45.350;5.578;2023-09-19T09:10:03;2.90;;;2.47;;
43891;SDS011;29555;45.350;5.578;2023-09-19T09:12:29;2.08;;;1.65;;
43891;SDS011;29555;45.350;5.578;2023-09-19T09:14:55;5.85;;;1.25;;
43891;SDS011;29555;45.350;5.578;2023-09-19T09:17:25;1.13;;;1.08;;
43891;SDS011;29555;45.350;5.578;2023-09-19T09:19:54;1.17;;;1.15;;
43891;SDS011;29555;45.350;5.578;2023-09-19T09:22:19;0.77;;;0.77;;
43891;SDS011;29555;45.350;5.578;2023-09-19T09:24:56;1.60;;;0.90;;
43891;SDS011;29555;45.350;5.578;2023-09-19T09:27:30;1.02;;;0.90;;
43891;SDS011;29555;45.350;5.578;2023-09-19T09:29:56;1.05;;;0.80;;
43891;SDS011;29555;45.350;5.578;2023-09-19T09:34:52;0.73;;;0.73;;
43891;SDS011;29555;45.350;5.578;2023-09-19T09:37:19;1.48;;;1.20;;
43891;SDS011;29555;45.350;5.578;2023-09-19T09:39:53;5.72;;;1.05;;
43891;SDS011;29555;45.350;5.578;2023-09-19T09:42:44;0.40;;;0.40;;
43891;SDS011;29555;45.350;5.578;2023-09-19T09:45:12;0.77;;;0.77;;
43891;SDS011;29555;45.350;5.578;2023-09-19T09:47:45;0.40;;;0.40;;
43891;SDS011;29555;45.350;5.578;2023-09-19T09:50:24;1.98;;;0.45;;
43891;SDS011;29555;45.350;5.578;2023-09-19T09:52:56;0.45;;;0.22;;
43891;SDS011;29555;45.350;5.578;2023-09-19T09:56:16;1.02;;;0.25;;
43891;SDS011;29555;45.350;5.578;2023-09-19T09:58:23;1.60;;;0.75;;
43891;SDS011;29555;45.350;5.578;2023-09-19T10:00:54;0.75;;;0.40;;
43891;SDS011;29555;45.350;5.578;2023-09-19T10:03:33;0.70;;;0.70;;
43891;SDS011;29555;45.350;5.578;2023-09-19T10:06:12;0.73;;;0.50;;
43891;SDS011;29555;45.350;5.578;2023-09-19T10:09:04;4.40;;;0.70;;
43891;SDS011;29555;45.350;5.578;2023-09-19T10:11:46;0.35;;;0.35;;
43891;SDS011;29555;45.350;5.578;2023-09-19T10:14:21;0.32;;;0.32;;
43891;SDS011;29555;45.350;5.578;2023-09-19T10:16:54;0.30;;;0.30;;
43891;SDS011;29555;45.350;5.578;2023-09-19T10:22:11;0.60;;;0.57;;
43891;SDS011;29555;45.350;5.578;2023-09-19T10:24:38;1.48;;;0.40;;
43891;SDS011;29555;45.350;5.578;2023-09-19T10:27:05;1.65;;;0.43;;
43891;SDS011;29555;45.350;5.578;2023-09-19T10:29:33;1.20;;;0.60;;
43891;SDS011;29555;45.350;5.578;2023-09-19T10:32:04;0.50;;;0.50;;
43891;SDS011;29555;45.350;5.578;2023-09-19T10:34:32;0.40;;;0.25;;
43891;SDS011;29555;45.350;5.578;2023-09-19T10:37:01;0.90;;;0.43;;
43891;SDS011;29555;45.350;5.578;2023-09-19T10:39:30;1.00;;;0.43;;
43891;SDS011;29555;45.350;5.578;2023-09-19T10:41:57;0.28;;;0.28;;
43891;SDS011;29555;45.350;5.578;2023-09-19T10:44:30;1.40;;;1.20;;
43891;SDS011;29555;45.350;5.578;2023-09-19T10:46:57;1.23;;;0.55;;
43891;SDS011;29555;45.350;5.578;2023-09-19T10:49:23;0.30;;;0.30;;
43891;SDS011;29555;45.350;5.578;2023-09-19T10:51:50;0.63;;;0.45;;
43891;SDS011;29555;45.350;5.578;2023-09-19T10:54:23;9.63;;;0.65;;
43891;SDS011;29555;45.350;5.578;2023-09-19T10:56:52;0.43;;;0.40;;
43891;SDS011;29555;45.350;5.578;2023-09-19T10:59:19;1.20;;;0.63;;
43891;SDS011;29555;45.350;5.578;2023-09-19T11:04:22;0.35;;;0.35;;
43891;SDS011;29555;45.350;5.578;2023-09-19T11:07:13;1.73;;;1.20;;
43891;SDS011;29555;45.350;5.578;2023-09-19T11:09:47;0.98;;;0.88;;
43891;SDS011;29555;45.350;5.578;2023-09-19T11:30:46;0.55;;;0.43;;
43891;SDS011;29555;45.350;5.578;2023-09-19T11:33:23;2.63;;;0.68;;
43891;SDS011;29555;45.350;5.578;2023-09-19T11:43:45;0.20;;;0.20;;
43891;SDS011;29555;45.350;5.578;2023-09-19T11:46:11;0.52;;;0.52;;
43891;SDS011;29555;45.350;5.578;2023-09-19T11:48:38;0.32;;;0.32;;
43891;SDS011;29555;45.350;5.578;2023-09-19T11:51:09;0.47;;;0.47;;
43891;SDS011;29555;45.350;5.578;2023-09-19T11:53:41;0.45;;;0.45;;
43891;SDS011;29555;45.350;5.578;2023-09-19T11:56:08;0.40;;;0.40;;
43891;SDS011;29555;45.350;5.578;2023-09-19T11:58:35;4.57;;;0.40;;
43891;SDS011;29555;45.350;5.578;2023-09-19T12:01:02;2.55;;;0.40;;
43891;SDS011;29555;45.350;5.578;2023-09-19T12:03:33;0.30;;;0.30;;
43891;SDS011;29555;45.350;5.578;2023-09-19T12:06:10;4.78;;;0.55;;
43891;SDS011;29555;45.350;5.578;2023-09-19T12:08:39;0.35;;;0.35;;
43891;SDS011;29555;45.350;5.578;2023-09-19T12:11:05;0.30;;;0.30;;
43891;SDS011;29555;45.350;5.578;2023-09-19T12:13:33;0.50;;;0.50;;
43891;SDS011;29555;45.350;5.578;2023-09-19T12:15:59;5.63;;;0.75;;
43891;SDS011;29555;45.350;5.578;2023-09-19T12:18:34;0.57;;;0.57;;
43891;SDS011;29555;45.350;5.578;2023-09-19T12:21:00;2.15;;;0.90;;
43891;SDS011;29555;45.350;5.578;2023-09-19T12:23:29;0.60;;;0.60;;
43891;SDS011;29555;45.350;5.578;2023-09-19T12:25:55;1.30;;;0.80;;
43891;SDS011;29555;45.350;5.578;2023-09-19T12:28:22;4.70;;;1.35;;
43891;SDS011;29555;45.350;5.578;2023-09-19T12:30:51;0.90;;;0.90;;
43891;SDS011;29555;45.350;5.578;2023-09-19T12:33:20;0.22;;;0.22;;
43891;SDS011;29555;45.350;5.578;2023-09-19T12:35:46;0.68;;;0.68;;
43891;SDS011;29555;45.350;5.578;2023-09-19T12:38:22;0.52;;;0.52;;
43891;SDS011;29555;45.350;5.578;2023-09-19T12:40:53;0.80;;;0.80;;
43891;SDS011;29555;45.350;5.578;2023-09-19T12:43:23;0.50;;;0.35;;
43891;SDS011;29555;45.350;5.578;2023-09-19T12:45:49;0.90;;;0.88;;
43891;SDS011;29555;45.350;5.578;2023-09-19T12:51:07;5.25;;;0.60;;
43891;SDS011;29555;45.350;5.578;2023-09-19T12:53:44;0.60;;;0.60;;
43891;SDS011;29555;45.350;5.578;2023-09-19T12:56:17;0.57;;;0.52;;
43891;SDS011;29555;45.350;5.578;2023-09-19T13:01:22;0.90;;;0.47;;
43891;SDS011;29555;45.350;5.578;2023-09-19T13:06:44;0.77;;;0.63;;
43891;SDS011;29555;45.350;5.578;2023-09-19T13:09:20;0.30;;;0.30;;
43891;SDS011;29555;45.350;5.578;2023-09-19T13:11:49;0.88;;;0.50;;
43891;SDS011;29555;45.350;5.578;2023-09-19T13:14:22;0.80;;;0.43;;
43891;SDS011;29555;45.350;5.578;2023-09-19T13:16:56;0.70;;;0.70;;
43891;SDS011;29555;45.350;5.578;2023-09-19T13:22:04;1.50;;;1.20;;
43891;SDS011;29555;45.350;5.578;2023-09-19T13:24:50;0.75;;;0.75;;
43891;SDS011;29555;45.350;5.578;2023-09-19T13:27:16;1.58;;;0.40;;
43891;SDS011;29555;45.350;5.578;2023-09-19T13:29:42;1.80;;;0.77;;
43891;SDS011;29555;45.350;5.578;2023-09-19T13:32:07;0.85;;;0.57;;
43891;SDS011;29555;45.350;5.578;2023-09-19T13:34:36;1.10;;;0.80;;
43891;SDS011;29555;45.350;5.578;2023-09-19T13:37:02;1.05;;;0.63;;
43891;SDS011;29555;45.350;5.578;2023-09-19T13:39:29;1.00;;;0.90;;
43891;SDS011;29555;45.350;5.578;2023-09-19T13:41:55;0.70;;;0.70;;
43891;SDS011;29555;45.350;5.578;2023-09-19T13:44:20;1.15;;;0.88;;
43891;SDS011;29555;45.350;5.578;2023-09-19T13:46:46;0.60;;;0.60;;
43891;SDS011;29555;45.350;5.578;2023-09-19T13:49:11;0.60;;;0.60;;
43891;SDS011;29555;45.350;5.578;2023-09-19T13:51:37;3.33;;;0.77;;
43891;SDS011;29555;45.350;5.578;2023-09-19T13:54:02;3.40;;;0.85;;
43891;SDS011;29555;45.350;5.578;2023-09-19T13:56:28;0.25;;;0.25;;
43891;SDS011;29555;45.350;5.578;2023-09-19T13:58:53;1.80;;;0.77;;
43891;SDS011;29555;45.350;5.578;2023-09-19T14:01:19;0.57;;;0.47;;
43891;SDS011;29555;45.350;5.578;2023-09-19T14:03:45;1.65;;;0.40;;
43891;SDS011;29555;45.350;5.578;2023-09-19T14:06:17;0.88;;;0.60;;
43891;SDS011;29555;45.350;5.578;2023-09-19T14:08:46;0.32;;;0.32;;
43891;SDS011;29555;45.350;5.578;2023-09-19T14:11:15;0.40;;;0.40;;
43891;SDS011;29555;45.350;5.578;2023-09-19T14:13:40;0.50;;;0.50;;
43891;SDS011;29555;45.350;5.578;2023-09-19T14:16:09;1.33;;;0.57;;
43891;SDS011;29555;45.350;5.578;2023-09-19T14:18:34;0.65;;;0.52;;
43891;SDS011;29555;45.350;5.578;2023-09-19T14:21:06;0.50;;;0.50;;
43891;SDS011;29555;45.350;5.578;2023-09-19T14:23:40;0.85;;;0.30;;
43891;SDS011;29555;45.350;5.578;2023-09-19T14:26:07;1.13;;;0.95;;
43891;SDS011;29555;45.350;5.578;2023-09-19T14:28:34;0.40;;;0.40;;
43891;SDS011;29555;45.350;5.578;2023-09-19T14:31:06;0.57;;;0.50;;
43891;SDS011;29555;45.350;5.578;2023-09-19T14:33:32;0.55;;;0.55;;
43891;SDS011;29555;45.350;5.578;2023-09-19T14:35:58;1.27;;;0.80;;
43891;SDS011;29555;45.350;5.578;2023-09-19T14:38:23;0.30;;;0.30;;
43891;SDS011;29555;45.350;5.578;2023-09-19T14:40:58;3.03;;;0.52;;
43891;SDS011;29555;45.350;5.578;2023-09-19T14:43:24;1.80;;;0.73;;
43891;SDS011;29555;45.350;5.578;2023-09-19T14:45:49;0.40;;;0.40;;
43891;SDS011;29555;45.350;5.578;2023-09-19T14:48:15;0.77;;;0.60;;
43891;SDS011;29555;45.350;5.578;2023-09-19T14:50:41;0.38;;;0.38;;
43891;SDS011;29555;45.350;5.578;2023-09-19T14:53:06;0.90;;;0.50;;
43891;SDS011;29555;45.350;5.578;2023-09-19T14:55:36;0.93;;;0.63;;
43891;SDS011;29555;45.350;5.578;2023-09-19T14:58:02;0.88;;;0.50;;
43891;SDS011;29555;45.350;5.578;2023-09-19T15:00:28;1.02;;;0.47;;
43891;SDS011;29555;45.350;5.578;2023-09-19T15:02:53;0.68;;;0.60;;
43891;SDS011;29555;45.350;5.578;2023-09-19T15:05:20;0.60;;;0.60;;
43891;SDS011;29555;45.350;5.578;2023-09-19T15:07:45;0.93;;;0.93;;
43891;SDS011;29555;45.350;5.578;2023-09-19T15:10:11;1.10;;;0.60;;
43891;SDS011;29555;45.350;5.578;2023-09-19T15:12:38;0.30;;;0.30;;
43891;SDS011;29555;45.350;5.578;2023-09-19T15:15:04;0.77;;;0.30;;
43891;SDS011;29555;45.350;5.578;2023-09-19T15:17:34;1.98;;;0.50;;
43891;SDS011;29555;45.350;5.578;2023-09-19T15:20:01;3.22;;;0.75;;
43891;SDS011;29555;45.350;5.578;2023-09-19T15:22:27;0.40;;;0.40;;
43891;SDS011;29555;45.350;5.578;2023-09-19T15:24:52;0.32;;;0.32;;
43891;SDS011;29555;45.350;5.578;2023-09-19T15:27:18;0.60;;;0.57;;
43891;SDS011;29555;45.350;5.578;2023-09-19T15:29:44;0.45;;;0.45;;
43891;SDS011;29555;45.350;5.578;2023-09-19T15:32:11;4.63;;;0.55;;
43891;SDS011;29555;45.350;5.578;2023-09-19T15:34:36;0.55;;;0.55;;
43891;SDS011;29555;45.350;5.578;2023-09-19T15:37:02;2.10;;;0.35;;
43891;SDS011;29555;45.350;5.578;2023-09-19T15:39:30;1.00;;;0.60;;
43891;SDS011;29555;45.350;5.578;2023-09-19T15:41:58;0.63;;;0.63;;
43891;SDS011;29555;45.350;5.578;2023-09-19T15:44:23;0.82;;;0.82;;
43891;SDS011;29555;45.350;5.578;2023-09-19T15:46:51;1.33;;;0.52;;
43891;SDS011;29555;45.350;5.578;2023-09-19T15:49:17;1.13;;;0.63;;
43891;SDS011;29555;45.350;5.578;2023-09-19T15:51:43;0.35;;;0.35;;
43891;SDS011;29555;45.350;5.578;2023-09-19T15:54:12;1.90;;;0.68;;
43891;SDS011;29555;45.350;5.578;2023-09-19T15:56:39;1.85;;;0.60;;
43891;SDS011;29555;45.350;5.578;2023-09-19T15:59:06;0.40;;;0.40;;
43891;SDS011;29555;45.350;5.578;2023-09-19T16:01:32;0.70;;;0.43;;
43891;SDS011;29555;45.350;5.578;2023-09-19T16:03:57;0.47;;;0.35;;
43891;SDS011;29555;45.350;5.578;2023-09-19T16:06:24;0.28;;;0.28;;
43891;SDS011;29555;45.350;5.578;2023-09-19T16:08:54;0.28;;;0.28;;